createdAt,value
2022-08-28T00:02:10.142Z,6.03
2022-08-28T00:06:12.794Z,6.10
2022-08-28T00:10:17.659Z,6.53
2022-08-28T00:14:21.145Z,5.15
2022-08-28T00:18:23.350Z,4.70
2022-08-28T00:22:25.732Z,5.00
2022-08-28T00:26:46.544Z,4.30
2022-08-28T00:30:51.642Z,6.55
2022-08-28T00:34:53.928Z,5.57
2022-08-28T00:38:59.983Z,5.55
2022-08-28T00:43:04.090Z,8.38
2022-08-28T00:47:06.531Z,6.05
2022-08-28T00:51:27.842Z,6.55
2022-08-28T00:55:30.445Z,5.53
2022-08-28T00:59:33.390Z,7.00
2022-08-28T01:03:37.153Z,5.45
2022-08-28T01:07:39.665Z,4.95
2022-08-28T01:11:44.446Z,6.63
2022-08-28T01:15:47.764Z,7.45
2022-08-28T01:19:58.445Z,9.20
2022-08-28T01:24:04.869Z,5.30
2022-08-28T01:28:12.425Z,7.25
2022-08-28T01:32:27.979Z,7.45
2022-08-28T01:36:30.805Z,6.53
2022-08-28T01:40:37.649Z,6.28
2022-08-28T01:44:39.805Z,7.30
2022-08-28T01:48:43.941Z,4.25
2022-08-28T01:52:46.308Z,5.88
2022-08-28T01:56:48.454Z,6.90
2022-08-28T02:00:51.305Z,4.65
2022-08-28T02:04:53.927Z,7.05
2022-08-28T02:08:56.217Z,6.25
2022-08-28T02:13:03.602Z,5.90
2022-08-28T02:17:07.315Z,6.20
2022-08-28T02:21:10.102Z,8.18
2022-08-28T02:25:13.968Z,6.72
2022-08-28T02:29:15.962Z,5.95
2022-08-28T02:33:18.828Z,8.27
2022-08-28T02:37:21.831Z,11.27
2022-08-28T02:41:24.322Z,6.25
2022-08-28T02:45:26.353Z,7.55
2022-08-28T02:49:31.257Z,8.32
2022-08-28T02:53:39.503Z,8.45
2022-08-28T02:57:42.871Z,7.18
2022-08-28T03:01:45.454Z,8.70
2022-08-28T03:05:47.539Z,6.88
2022-08-28T03:09:50.293Z,7.95
2022-08-28T03:13:52.840Z,5.40
2022-08-28T03:17:54.970Z,7.15
2022-08-28T03:21:57.091Z,7.53
2022-08-28T03:26:03.601Z,7.50
2022-08-28T03:30:08.000Z,6.95
2022-08-28T03:38:12.546Z,10.65
2022-08-28T03:42:15.247Z,7.93
2022-08-28T03:46:20.670Z,8.73
2022-08-28T03:50:22.922Z,10.05
2022-08-28T03:54:26.761Z,8.85
2022-08-28T03:58:29.683Z,6.82
2022-08-28T04:02:31.697Z,6.25
2022-08-28T04:06:33.774Z,8.70
2022-08-28T04:14:40.537Z,8.52
2022-08-28T04:18:43.483Z,7.78
2022-08-28T04:22:45.477Z,9.35
2022-08-28T04:26:47.571Z,9.90
2022-08-28T04:30:54.488Z,9.23
2022-08-28T04:34:56.548Z,8.57
2022-08-28T04:38:58.872Z,9.90
2022-08-28T04:43:00.877Z,8.68
2022-08-28T04:47:02.922Z,8.65
2022-08-28T04:51:10.677Z,9.02
2022-08-28T04:59:14.955Z,8.45
2022-08-28T05:03:18.196Z,7.75
2022-08-28T05:07:20.336Z,8.93
2022-08-28T05:11:33.475Z,10.32
2022-08-28T05:15:51.830Z,10.90
2022-08-28T05:19:54.371Z,7.43
2022-08-28T05:23:57.904Z,9.35
2022-08-28T05:28:00.377Z,8.97
2022-08-28T05:32:04.212Z,7.63
2022-08-28T05:36:07.851Z,6.88
2022-08-28T05:40:10.830Z,4.57
2022-08-28T05:44:15.437Z,7.32
2022-08-28T05:48:17.492Z,7.00
2022-08-28T05:52:19.723Z,10.15
2022-08-28T05:56:25.486Z,6.43
2022-08-28T06:00:27.506Z,8.63
2022-08-28T06:04:30.124Z,4.65
2022-08-28T06:08:33.229Z,5.45
2022-08-28T06:12:35.450Z,4.68
2022-08-28T06:16:40.196Z,8.48
2022-08-28T06:20:45.146Z,2.63
2022-08-28T06:24:47.223Z,4.22
2022-08-28T06:28:49.668Z,2.95
2022-08-28T06:32:51.816Z,2.20
2022-08-28T06:36:55.072Z,2.30
2022-08-28T06:40:57.763Z,2.58
2022-08-28T06:44:59.815Z,4.03
2022-08-28T06:49:03.935Z,3.08
2022-08-28T06:57:10.079Z,2.42
2022-08-28T07:01:26.493Z,3.00
2022-08-28T07:05:28.662Z,2.83
2022-08-28T07:09:30.950Z,2.53
2022-08-28T07:13:36.640Z,1.73
2022-08-28T07:17:39.791Z,3.03
2022-08-28T07:21:44.311Z,3.85
2022-08-28T07:25:46.539Z,1.80
2022-08-28T07:29:49.284Z,1.98
2022-08-28T07:33:54.142Z,2.05
2022-08-28T07:37:57.525Z,1.65
2022-08-28T07:41:59.767Z,2.55
2022-08-28T07:46:07.073Z,1.95
2022-08-28T07:50:09.770Z,3.72
2022-08-28T07:54:17.745Z,2.35
2022-08-28T07:58:20.825Z,3.00
2022-08-28T08:02:22.935Z,2.10
2022-08-28T08:06:33.855Z,1.77
2022-08-28T08:10:39.402Z,3.17
2022-08-28T08:14:44.196Z,1.73
2022-08-28T08:18:48.698Z,1.50
2022-08-28T08:22:50.826Z,2.67
2022-08-28T08:27:00.366Z,1.45
2022-08-28T08:31:20.249Z,2.00
2022-08-28T08:35:22.415Z,3.88
2022-08-28T08:39:24.413Z,3.95
2022-08-28T08:43:30.230Z,2.45
2022-08-28T08:47:51.536Z,1.70
2022-08-28T08:52:21.638Z,2.80
2022-08-28T08:56:34.604Z,2.47
2022-08-28T09:01:01.147Z,2.55
2022-08-28T09:05:12.630Z,2.28
2022-08-28T09:09:21.546Z,2.05
2022-08-28T09:13:38.719Z,4.43
2022-08-28T09:18:26.707Z,2.08
2022-08-28T09:22:30.189Z,3.13
2022-08-28T09:26:32.215Z,3.38
2022-08-28T09:34:39.307Z,2.03
2022-08-28T09:38:41.695Z,1.58
2022-08-28T09:43:23.617Z,1.65
2022-08-28T09:47:46.211Z,2.70
2022-08-28T09:51:48.996Z,2.58
2022-08-28T09:56:11.114Z,3.90
2022-08-28T10:00:14.929Z,2.70
2022-08-28T10:04:35.983Z,2.00
2022-08-28T10:08:57.527Z,2.20
2022-08-28T10:13:20.570Z,2.58
2022-08-28T10:17:42.040Z,2.00
2022-08-28T10:21:51.223Z,2.95
2022-08-28T10:26:16.656Z,1.90
2022-08-28T10:30:24.415Z,2.42
2022-08-28T10:35:15.330Z,3.97
2022-08-28T10:39:32.687Z,3.00
2022-08-28T10:43:43.337Z,3.67
2022-08-28T10:47:51.891Z,2.80
2022-08-28T10:52:09.047Z,1.95
2022-08-28T10:56:17.578Z,2.00
2022-08-28T11:00:23.106Z,5.78
2022-08-28T11:04:29.353Z,4.28
2022-08-28T11:08:44.433Z,2.10
2022-08-28T11:12:52.218Z,3.75
2022-08-28T11:16:59.207Z,1.80
2022-08-28T11:21:27.678Z,5.95
2022-08-28T11:25:48.411Z,3.25
2022-08-28T11:30:08.839Z,2.45
2022-08-28T11:34:49.182Z,3.30
2022-08-28T11:38:52.027Z,5.72
2022-08-28T11:43:17.067Z,2.05
2022-08-28T11:47:41.947Z,2.20
2022-08-28T11:51:50.757Z,1.90
2022-08-28T11:56:14.062Z,5.80
2022-08-28T12:00:51.758Z,1.65
2022-08-28T12:08:58.938Z,2.33
2022-08-28T12:13:02.865Z,2.22
2022-08-28T12:21:38.737Z,2.92
2022-08-28T12:25:44.225Z,3.38
2022-08-28T12:29:55.535Z,2.55
2022-08-28T12:34:04.229Z,1.75
2022-08-28T12:38:09.411Z,2.42
2022-08-28T12:42:24.401Z,1.80
2022-08-28T12:46:40.910Z,2.58
2022-08-28T12:50:43.582Z,2.35
2022-08-28T12:54:46.870Z,2.58
2022-08-28T13:02:54.602Z,1.90
2022-08-28T13:07:17.601Z,2.67
2022-08-28T13:11:21.386Z,2.10
2022-08-28T13:15:42.527Z,2.50
2022-08-28T13:19:45.321Z,3.88
2022-08-28T13:23:54.249Z,2.70
2022-08-28T13:28:03.154Z,1.90
2022-08-28T13:32:08.453Z,3.75
2022-08-28T13:36:21.947Z,2.15
2022-08-28T13:44:56.929Z,2.10
2022-08-28T13:48:58.990Z,2.00
2022-08-28T13:53:01.754Z,3.72
2022-08-28T13:57:05.717Z,2.05
2022-08-28T14:01:08.084Z,5.88
2022-08-28T14:05:10.556Z,3.27
2022-08-28T14:09:15.482Z,4.07
2022-08-28T14:13:20.340Z,1.42
2022-08-28T14:17:22.616Z,2.83
2022-08-28T14:21:26.918Z,2.85
2022-08-28T14:25:29.042Z,3.65
2022-08-28T14:29:31.909Z,2.05
2022-08-28T14:33:37.020Z,5.75
2022-08-28T14:37:39.225Z,3.00
2022-08-28T14:41:46.927Z,1.50
2022-08-28T14:45:50.523Z,1.30
2022-08-28T14:53:54.799Z,2.50
2022-08-28T14:57:57.123Z,4.07
2022-08-28T15:02:00.630Z,2.47
2022-08-28T15:10:06.805Z,2.95
2022-08-28T15:14:11.103Z,3.28
2022-08-28T15:18:13.361Z,8.25
2022-08-28T15:22:15.458Z,1.60
2022-08-28T15:26:31.393Z,3.60
2022-08-28T15:30:33.655Z,2.53
2022-08-28T15:34:35.817Z,1.80
2022-08-28T15:38:56.710Z,3.67
2022-08-28T15:43:00.292Z,3.33
2022-08-28T15:47:03.219Z,4.47
2022-08-28T15:51:05.303Z,1.87
2022-08-28T15:55:07.992Z,5.90
2022-08-28T15:59:11.454Z,2.30
2022-08-28T16:03:14.086Z,4.53
2022-08-28T16:07:17.337Z,3.47
2022-08-28T16:11:23.052Z,3.03
2022-08-28T16:15:26.313Z,2.35
2022-08-28T16:19:28.766Z,3.27
2022-08-28T16:23:31.018Z,2.53
2022-08-28T16:27:33.341Z,4.68
2022-08-28T16:31:35.457Z,2.33
2022-08-28T16:35:49.215Z,2.83
2022-08-28T16:39:57.373Z,1.23
2022-08-28T16:43:59.855Z,1.90
2022-08-28T16:48:04.074Z,1.35
2022-08-28T16:52:06.159Z,1.80
2022-08-28T16:56:13.123Z,1.17
2022-08-28T17:00:15.384Z,3.28
2022-08-28T17:04:17.890Z,0.93
2022-08-28T17:08:20.008Z,1.58
2022-08-28T17:12:22.216Z,1.08
2022-08-28T17:16:25.742Z,2.45
2022-08-28T17:20:46.510Z,1.52
2022-08-28T17:24:48.698Z,1.52
2022-08-28T17:28:54.900Z,2.22
2022-08-28T17:32:57.212Z,1.52
2022-08-28T17:36:59.460Z,4.03
2022-08-28T17:41:06.585Z,2.80
2022-08-28T17:45:11.872Z,1.55
2022-08-28T17:49:15.464Z,1.88
2022-08-28T17:53:18.914Z,4.03
2022-08-28T17:57:20.918Z,2.83
2022-08-28T18:01:25.665Z,2.00
2022-08-28T18:05:27.765Z,3.15
2022-08-28T18:09:29.954Z,4.55
2022-08-28T18:13:33.446Z,3.25
2022-08-28T18:17:39.276Z,2.63
2022-08-28T18:21:41.655Z,2.20
2022-08-28T18:25:50.996Z,4.22
2022-08-28T18:29:55.226Z,3.40
2022-08-28T18:33:58.147Z,2.97
2022-08-28T18:38:02.877Z,2.92
2022-08-28T18:42:05.403Z,4.53
2022-08-28T18:46:14.180Z,3.33
2022-08-28T18:50:16.647Z,1.23
2022-08-28T18:54:20.531Z,5.68
2022-08-28T18:58:23.728Z,1.50
2022-08-28T19:02:27.792Z,2.70
2022-08-28T19:06:30.092Z,2.78
2022-08-28T19:10:34.782Z,2.10
2022-08-28T19:14:38.028Z,1.48
2022-08-28T19:18:40.272Z,1.40
2022-08-28T19:22:43.154Z,1.15
2022-08-28T19:26:46.310Z,4.75
2022-08-28T19:30:48.521Z,1.65
2022-08-28T19:34:50.855Z,3.05
2022-08-28T19:38:55.441Z,1.73
2022-08-28T19:42:57.581Z,1.92
2022-08-28T19:46:59.776Z,3.17
2022-08-28T19:51:17.338Z,2.45
2022-08-28T19:55:27.497Z,2.97
2022-08-28T19:59:29.586Z,2.58
2022-08-28T20:03:31.895Z,4.30
2022-08-28T20:07:33.951Z,2.40
2022-08-28T20:11:36.049Z,2.45
2022-08-28T20:15:41.984Z,2.42
2022-08-28T20:19:46.456Z,2.83
2022-08-28T20:23:48.634Z,3.25
2022-08-28T20:27:51.675Z,3.78
2022-08-28T20:31:54.234Z,2.40
2022-08-28T20:36:01.347Z,2.20
2022-08-28T20:40:09.836Z,1.88
2022-08-28T20:44:15.592Z,1.73
2022-08-28T20:48:17.684Z,2.10
2022-08-28T20:52:22.096Z,2.40
2022-08-28T20:56:27.235Z,5.28
2022-08-28T21:00:29.611Z,3.60
2022-08-28T21:04:38.803Z,3.97
2022-08-28T21:08:42.403Z,1.95
2022-08-28T21:12:44.549Z,4.28
2022-08-28T21:16:46.900Z,2.67
2022-08-28T21:20:49.213Z,8.70
2022-08-28T21:24:52.158Z,3.53
2022-08-28T21:28:54.820Z,3.45
2022-08-28T21:32:59.512Z,3.60
2022-08-28T21:37:04.061Z,6.25
2022-08-28T21:41:13.544Z,4.13
2022-08-28T21:45:15.607Z,3.85
2022-08-28T21:49:20.125Z,3.42
2022-08-28T21:53:28.466Z,3.95
2022-08-28T21:57:31.358Z,3.60
2022-08-28T22:01:33.899Z,2.00
2022-08-28T22:05:36.245Z,1.98
2022-08-28T22:09:38.748Z,4.35
2022-08-28T22:13:40.926Z,1.73
2022-08-28T22:17:43.570Z,1.60
2022-08-28T22:22:06.966Z,2.30
2022-08-28T22:26:14.671Z,2.22
2022-08-28T22:30:18.084Z,5.07
2022-08-28T22:34:20.907Z,3.00
2022-08-28T22:38:24.700Z,3.03
2022-08-28T22:42:27.151Z,2.38
2022-08-28T22:46:29.307Z,4.93
2022-08-28T22:50:31.669Z,9.90
2022-08-28T22:54:34.477Z,3.70
2022-08-28T22:58:36.764Z,2.97
2022-08-28T23:02:40.351Z,2.53
2022-08-28T23:06:42.465Z,3.83
2022-08-28T23:10:58.501Z,3.42
2022-08-28T23:15:04.466Z,5.05
2022-08-28T23:19:08.872Z,3.20
2022-08-28T23:23:12.003Z,3.22
2022-08-28T23:27:35.465Z,3.92
2022-08-28T23:31:37.281Z,4.85
2022-08-28T23:35:39.759Z,3.72
2022-08-28T23:39:42.315Z,6.93
2022-08-28T23:43:44.587Z,4.55
2022-08-28T23:47:47.421Z,5.18
2022-08-28T23:51:49.631Z,7.30
2022-08-28T23:55:54.342Z,6.32
2022-08-28T23:59:57.299Z,6.65
